Terminal Aerodrome Forecast
Issued by NWS

Home | Current Version | Previous Version | Graphics & Text | Print | Product List | Glossary On
Versions: 1 2 3 4 5 6 7 8 9 10 11 12 13 14 15
000
FTUS43 KICT 262300
TAFRSL
TAF
KRSL 262338Z 2700/2724 15008KT P6SM SKC
     FM270800 18008KT P6SM VCTS BKN080CB
     FM271500 18014G20KT 5SM -TSRA BKN050CB=

USA.gov is the U.S. government's official web portal to all federal, state and local government web resources and services.